Offutt Air Force Base Omaha US
ICAO: KOFF
IATA: OFF
Category: Medium
Scheduled Services: No

Elevation: 1052 ft
TransAlt. 18000 ft.

Airport Communications:
OMAHA APP/DEP:118
ATIS:126.025
GND:121.7
PMSV METRO:22.74
COMD POST:31.1
PTD:37.94
TWR:123.7

KOFF Zoom In..

Runways:

(A) RW 12 length 11702 ft width 150 ft
ILS 111.70 / hdg 124

(B) RW 30 length 11702 ft width 150 ft
ILS 109.50 / hdg 304

Location; KOFF
Day. 08 / Time. 04.11 Zulu
* Altimeter: 29.74
* Temperature: 11° c. 51.8°f.
* Wind from: 000° Speed 00 kn.
Dewpoint: 06° c.
Visibility: 2 Statute Miles.
Clouds: Clear (automated report).
Conditions: Haze.

KOFF 080411Z AUTO 00000KT 2SM HZ CLR 11/06 A2974 RMK AO2 SLP074 $


Wind - Calm.

 
 
jpsmedia worldairports.se 2020   terms of use